Terminal Aerodrome Forecast
Issued by NWS Twin Cities, MN

Home | Current Version | Previous Version | Text Only | Print | Product List | Glossary On
Versions: 1 2 3 4 5 6 7 8 9 10 11 12 13 14
000
FTUS43 KMPX 011123
TAFSTC
TAF
KSTC 011123Z 0112/0212 21007KT P6SM SCT030 BKN100
      TEMPO 0112/0113 BKN015
     FM011400 25009KT P6SM SCT100
     FM011900 28011G17KT P6SM FEW020 BKN050
     FM020300 27008KT P6SM SKC=

USA.gov is the U.S. government's official web portal to all federal, state and local government web resources and services.